sensor_id;sensor_type;location;lat;lon;timestamp;P1;durP1;ratioP1;P2;durP2;ratioP2
15061;SDS011;7630;50.306;8.566;2022-10-12T00:03:22;11.67;;;8.17;;
15061;SDS011;7630;50.306;8.566;2022-10-12T00:07:24;10.77;;;8.23;;
15061;SDS011;7630;50.306;8.566;2022-10-12T00:11:26;16.43;;;9.93;;
15061;SDS011;7630;50.306;8.566;2022-10-12T00:15:28;10.47;;;9.40;;
15061;SDS011;7630;50.306;8.566;2022-10-12T00:19:29;11.07;;;8.50;;
15061;SDS011;7630;50.306;8.566;2022-10-12T00:23:31;14.53;;;9.57;;
15061;SDS011;7630;50.306;8.566;2022-10-12T00:27:32;10.07;;;9.07;;
15061;SDS011;7630;50.306;8.566;2022-10-12T00:31:33;9.73;;;7.63;;
15061;SDS011;7630;50.306;8.566;2022-10-12T00:35:34;13.37;;;7.57;;
15061;SDS011;7630;50.306;8.566;2022-10-12T00:39:35;16.17;;;8.33;;
15061;SDS011;7630;50.306;8.566;2022-10-12T00:43:37;11.23;;;6.93;;
15061;SDS011;7630;50.306;8.566;2022-10-12T00:47:51;8.80;;;7.17;;
15061;SDS011;7630;50.306;8.566;2022-10-12T00:51:56;8.73;;;7.43;;
15061;SDS011;7630;50.306;8.566;2022-10-12T00:56:00;10.47;;;7.93;;
15061;SDS011;7630;50.306;8.566;2022-10-12T01:00:05;10.93;;;8.43;;
15061;SDS011;7630;50.306;8.566;2022-10-12T01:04:09;11.90;;;8.20;;
15061;SDS011;7630;50.306;8.566;2022-10-12T01:08:10;9.83;;;7.03;;
15061;SDS011;7630;50.306;8.566;2022-10-12T01:12:11;11.07;;;7.67;;
15061;SDS011;7630;50.306;8.566;2022-10-12T01:16:19;11.37;;;8.23;;
15061;SDS011;7630;50.306;8.566;2022-10-12T01:24:54;14.37;;;8.13;;
15061;SDS011;7630;50.306;8.566;2022-10-12T01:33:13;10.53;;;8.97;;
15061;SDS011;7630;50.306;8.566;2022-10-12T01:41:45;8.43;;;7.60;;
15061;SDS011;7630;50.306;8.566;2022-10-12T01:45:48;9.33;;;8.30;;
15061;SDS011;7630;50.306;8.566;2022-10-12T01:49:50;10.73;;;7.53;;
15061;SDS011;7630;50.306;8.566;2022-10-12T01:53:54;9.23;;;7.83;;
15061;SDS011;7630;50.306;8.566;2022-10-12T01:58:21;10.47;;;7.90;;
15061;SDS011;7630;50.306;8.566;2022-10-12T02:02:25;9.73;;;7.80;;
15061;SDS011;7630;50.306;8.566;2022-10-12T02:06:44;8.27;;;7.47;;
15061;SDS011;7630;50.306;8.566;2022-10-12T02:11:04;9.33;;;7.60;;
15061;SDS011;7630;50.306;8.566;2022-10-12T02:15:13;10.47;;;7.33;;
15061;SDS011;7630;50.306;8.566;2022-10-12T02:19:18;11.47;;;8.33;;
15061;SDS011;7630;50.306;8.566;2022-10-12T02:23:21;9.93;;;8.33;;
15061;SDS011;7630;50.306;8.566;2022-10-12T02:27:24;8.00;;;7.17;;
15061;SDS011;7630;50.306;8.566;2022-10-12T02:31:27;12.90;;;8.37;;
15061;SDS011;7630;50.306;8.566;2022-10-12T02:35:36;16.00;;;9.77;;
15061;SDS011;7630;50.306;8.566;2022-10-12T02:43:48;11.10;;;9.63;;
15061;SDS011;7630;50.306;8.566;2022-10-12T02:47:54;11.13;;;9.83;;
15061;SDS011;7630;50.306;8.566;2022-10-12T02:51:57;10.37;;;9.37;;
15061;SDS011;7630;50.306;8.566;2022-10-12T02:56:00;10.10;;;8.47;;
15061;SDS011;7630;50.306;8.566;2022-10-12T03:00:04;12.60;;;9.63;;
15061;SDS011;7630;50.306;8.566;2022-10-12T03:04:05;9.80;;;8.87;;
15061;SDS011;7630;50.306;8.566;2022-10-12T03:08:07;9.40;;;8.57;;
15061;SDS011;7630;50.306;8.566;2022-10-12T03:12:08;10.47;;;9.20;;
15061;SDS011;7630;50.306;8.566;2022-10-12T03:16:09;12.80;;;10.53;;
15061;SDS011;7630;50.306;8.566;2022-10-12T03:20:11;14.80;;;11.57;;
15061;SDS011;7630;50.306;8.566;2022-10-12T03:24:12;18.77;;;11.20;;
15061;SDS011;7630;50.306;8.566;2022-10-12T03:28:13;13.60;;;10.77;;
15061;SDS011;7630;50.306;8.566;2022-10-12T03:32:14;16.53;;;9.40;;
15061;SDS011;7630;50.306;8.566;2022-10-12T03:36:15;11.77;;;8.63;;
15061;SDS011;7630;50.306;8.566;2022-10-12T03:40:16;10.87;;;7.83;;
15061;SDS011;7630;50.306;8.566;2022-10-12T03:44:17;15.13;;;7.67;;
15061;SDS011;7630;50.306;8.566;2022-10-12T03:48:18;11.17;;;7.43;;
15061;SDS011;7630;50.306;8.566;2022-10-12T03:52:19;9.47;;;7.67;;
15061;SDS011;7630;50.306;8.566;2022-10-12T03:56:20;9.40;;;6.57;;
15061;SDS011;7630;50.306;8.566;2022-10-12T04:00:21;9.20;;;7.90;;
15061;SDS011;7630;50.306;8.566;2022-10-12T04:04:22;12.27;;;8.60;;
15061;SDS011;7630;50.306;8.566;2022-10-12T04:08:23;10.10;;;8.03;;
15061;SDS011;7630;50.306;8.566;2022-10-12T04:12:26;14.20;;;8.43;;
15061;SDS011;7630;50.306;8.566;2022-10-12T04:16:27;12.10;;;8.10;;
15061;SDS011;7630;50.306;8.566;2022-10-12T04:20:30;13.97;;;8.97;;
15061;SDS011;7630;50.306;8.566;2022-10-12T04:24:31;12.37;;;9.40;;
15061;SDS011;7630;50.306;8.566;2022-10-12T04:28:32;17.33;;;11.67;;
15061;SDS011;7630;50.306;8.566;2022-10-12T04:32:34;14.17;;;10.17;;
15061;SDS011;7630;50.306;8.566;2022-10-12T04:36:35;12.93;;;9.63;;
15061;SDS011;7630;50.306;8.566;2022-10-12T04:40:36;10.33;;;8.03;;
15061;SDS011;7630;50.306;8.566;2022-10-12T04:44:37;14.75;;;10.85;;
15061;SDS011;7630;50.306;8.566;2022-10-12T04:48:38;17.33;;;10.87;;
15061;SDS011;7630;50.306;8.566;2022-10-12T04:52:39;14.00;;;9.13;;
15061;SDS011;7630;50.306;8.566;2022-10-12T04:56:40;11.97;;;8.93;;
15061;SDS011;7630;50.306;8.566;2022-10-12T05:00:43;10.60;;;9.20;;
15061;SDS011;7630;50.306;8.566;2022-10-12T05:04:44;15.47;;;11.00;;
15061;SDS011;7630;50.306;8.566;2022-10-12T05:08:45;10.50;;;9.40;;
15061;SDS011;7630;50.306;8.566;2022-10-12T05:12:46;14.47;;;9.23;;
15061;SDS011;7630;50.306;8.566;2022-10-12T05:16:47;12.40;;;9.77;;
15061;SDS011;7630;50.306;8.566;2022-10-12T05:20:48;13.43;;;11.00;;
15061;SDS011;7630;50.306;8.566;2022-10-12T05:24:50;10.97;;;9.60;;
15061;SDS011;7630;50.306;8.566;2022-10-12T05:28:53;11.17;;;9.33;;
15061;SDS011;7630;50.306;8.566;2022-10-12T05:32:54;9.30;;;8.37;;
15061;SDS011;7630;50.306;8.566;2022-10-12T05:36:55;11.50;;;9.00;;
15061;SDS011;7630;50.306;8.566;2022-10-12T05:40:57;11.17;;;9.37;;
15061;SDS011;7630;50.306;8.566;2022-10-12T05:45:00;11.17;;;8.43;;
15061;SDS011;7630;50.306;8.566;2022-10-12T05:49:01;10.83;;;9.77;;
15061;SDS011;7630;50.306;8.566;2022-10-12T05:53:02;15.93;;;10.17;;
15061;SDS011;7630;50.306;8.566;2022-10-12T05:57:03;9.23;;;8.43;;
15061;SDS011;7630;50.306;8.566;2022-10-12T06:01:05;16.37;;;10.30;;
15061;SDS011;7630;50.306;8.566;2022-10-12T06:05:08;11.67;;;10.03;;
15061;SDS011;7630;50.306;8.566;2022-10-12T06:09:09;9.83;;;8.77;;
15061;SDS011;7630;50.306;8.566;2022-10-12T06:13:12;10.80;;;8.97;;
15061;SDS011;7630;50.306;8.566;2022-10-12T06:17:13;11.33;;;9.13;;
15061;SDS011;7630;50.306;8.566;2022-10-12T06:21:14;10.93;;;9.73;;
15061;SDS011;7630;50.306;8.566;2022-10-12T06:25:17;18.57;;;11.03;;
15061;SDS011;7630;50.306;8.566;2022-10-12T06:29:18;10.83;;;9.57;;
15061;SDS011;7630;50.306;8.566;2022-10-12T06:33:19;12.63;;;9.80;;
15061;SDS011;7630;50.306;8.566;2022-10-12T06:37:20;10.50;;;8.63;;
15061;SDS011;7630;50.306;8.566;2022-10-12T06:41:23;20.43;;;15.83;;
15061;SDS011;7630;50.306;8.566;2022-10-12T06:45:25;18.07;;;13.60;;
15061;SDS011;7630;50.306;8.566;2022-10-12T06:49:26;15.30;;;13.27;;
15061;SDS011;7630;50.306;8.566;2022-10-12T06:53:27;13.07;;;10.90;;
15061;SDS011;7630;50.306;8.566;2022-10-12T06:57:30;15.23;;;10.50;;
15061;SDS011;7630;50.306;8.566;2022-10-12T07:01:31;13.73;;;9.40;;
15061;SDS011;7630;50.306;8.566;2022-10-12T07:05:32;16.10;;;13.27;;
15061;SDS011;7630;50.306;8.566;2022-10-12T07:09:33;18.77;;;16.77;;
15061;SDS011;7630;50.306;8.566;2022-10-12T07:13:36;15.17;;;13.70;;
15061;SDS011;7630;50.306;8.566;2022-10-12T07:17:37;16.77;;;14.93;;
15061;SDS011;7630;50.306;8.566;2022-10-12T07:21:39;15.67;;;13.67;;
15061;SDS011;7630;50.306;8.566;2022-10-12T07:25:40;18.27;;;16.40;;
15061;SDS011;7630;50.306;8.566;2022-10-12T07:29:43;15.67;;;12.23;;
15061;SDS011;7630;50.306;8.566;2022-10-12T07:33:44;11.47;;;10.33;;
15061;SDS011;7630;50.306;8.566;2022-10-12T07:37:47;14.27;;;11.57;;
15061;SDS011;7630;50.306;8.566;2022-10-12T07:41:48;27.63;;;25.40;;
15061;SDS011;7630;50.306;8.566;2022-10-12T07:45:49;41.70;;;37.67;;
15061;SDS011;7630;50.306;8.566;2022-10-12T07:49:50;16.03;;;14.50;;
15061;SDS011;7630;50.306;8.566;2022-10-12T07:53:51;11.63;;;8.87;;
15061;SDS011;7630;50.306;8.566;2022-10-12T07:57:52;14.90;;;7.90;;
15061;SDS011;7630;50.306;8.566;2022-10-12T08:01:53;7.03;;;6.27;;
15061;SDS011;7630;50.306;8.566;2022-10-12T08:05:54;12.17;;;7.23;;
15061;SDS011;7630;50.306;8.566;2022-10-12T08:09:55;9.77;;;6.63;;
15061;SDS011;7630;50.306;8.566;2022-10-12T08:13:56;9.53;;;7.93;;
15061;SDS011;7630;50.306;8.566;2022-10-12T08:17:57;7.83;;;4.33;;
15061;SDS011;7630;50.306;8.566;2022-10-12T08:21:58;9.10;;;5.17;;
15061;SDS011;7630;50.306;8.566;2022-10-12T08:26:00;5.63;;;4.60;;
15061;SDS011;7630;50.306;8.566;2022-10-12T08:30:01;6.67;;;5.00;;
15061;SDS011;7630;50.306;8.566;2022-10-12T08:34:03;8.53;;;5.27;;
15061;SDS011;7630;50.306;8.566;2022-10-12T08:38:04;8.63;;;5.17;;
15061;SDS011;7630;50.306;8.566;2022-10-12T08:46:27;7.23;;;5.90;;
15061;SDS011;7630;50.306;8.566;2022-10-12T08:50:33;12.30;;;6.27;;
15061;SDS011;7630;50.306;8.566;2022-10-12T08:54:40;10.47;;;6.80;;
15061;SDS011;7630;50.306;8.566;2022-10-12T08:58:45;8.07;;;6.87;;
15061;SDS011;7630;50.306;8.566;2022-10-12T09:03:07;10.37;;;7.00;;
15061;SDS011;7630;50.306;8.566;2022-10-12T09:07:18;13.87;;;8.27;;
15061;SDS011;7630;50.306;8.566;2022-10-12T09:11:43;9.57;;;7.30;;
15061;SDS011;7630;50.306;8.566;2022-10-12T09:16:02;9.30;;;7.40;;
15061;SDS011;7630;50.306;8.566;2022-10-12T09:20:06;9.00;;;6.57;;
15061;SDS011;7630;50.306;8.566;2022-10-12T09:24:18;14.37;;;10.13;;
15061;SDS011;7630;50.306;8.566;2022-10-12T09:28:26;18.50;;;12.23;;
15061;SDS011;7630;50.306;8.566;2022-10-12T09:36:40;15.67;;;10.13;;
15061;SDS011;7630;50.306;8.566;2022-10-12T09:40:41;13.23;;;11.10;;
15061;SDS011;7630;50.306;8.566;2022-10-12T09:49:18;12.37;;;9.70;;
15061;SDS011;7630;50.306;8.566;2022-10-12T09:53:24;12.83;;;10.47;;
15061;SDS011;7630;50.306;8.566;2022-10-12T09:57:32;14.30;;;11.33;;
15061;SDS011;7630;50.306;8.566;2022-10-12T10:01:36;16.63;;;11.50;;
15061;SDS011;7630;50.306;8.566;2022-10-12T10:05:38;12.93;;;10.20;;
15061;SDS011;7630;50.306;8.566;2022-10-12T10:09:39;18.10;;;13.57;;
15061;SDS011;7630;50.306;8.566;2022-10-12T10:13:43;19.83;;;13.23;;
15061;SDS011;7630;50.306;8.566;2022-10-12T10:17:46;17.90;;;13.73;;
15061;SDS011;7630;50.306;8.566;2022-10-12T10:21:49;15.60;;;13.17;;
15061;SDS011;7630;50.306;8.566;2022-10-12T10:26:01;16.07;;;13.17;;
15061;SDS011;7630;50.306;8.566;2022-10-12T10:34:23;16.33;;;14.20;;
15061;SDS011;7630;50.306;8.566;2022-10-12T10:38:26;12.90;;;11.57;;
15061;SDS011;7630;50.306;8.566;2022-10-12T10:42:29;15.37;;;11.93;;
15061;SDS011;7630;50.306;8.566;2022-10-12T10:46:32;12.33;;;11.13;;
15061;SDS011;7630;50.306;8.566;2022-10-12T10:50:37;15.87;;;11.53;;
15061;SDS011;7630;50.306;8.566;2022-10-12T10:54:40;14.93;;;10.57;;
15061;SDS011;7630;50.306;8.566;2022-10-12T11:02:56;12.20;;;8.60;;
15061;SDS011;7630;50.306;8.566;2022-10-12T11:07:00;14.97;;;10.53;;
15061;SDS011;7630;50.306;8.566;2022-10-12T11:11:06;9.77;;;8.70;;
15061;SDS011;7630;50.306;8.566;2022-10-12T11:15:23;10.33;;;8.80;;
15061;SDS011;7630;50.306;8.566;2022-10-12T11:19:39;8.40;;;7.03;;
15061;SDS011;7630;50.306;8.566;2022-10-12T11:23:50;12.10;;;9.27;;
15061;SDS011;7630;50.306;8.566;2022-10-12T11:27:53;15.80;;;8.40;;
15061;SDS011;7630;50.306;8.566;2022-10-12T11:32:02;15.87;;;8.80;;
15061;SDS011;7630;50.306;8.566;2022-10-12T11:36:08;23.67;;;8.20;;
15061;SDS011;7630;50.306;8.566;2022-10-12T11:40:17;10.57;;;8.67;;
15061;SDS011;7630;50.306;8.566;2022-10-12T11:48:58;12.73;;;10.67;;
15061;SDS011;7630;50.306;8.566;2022-10-12T11:53:09;11.50;;;10.23;;
15061;SDS011;7630;50.306;8.566;2022-10-12T11:57:26;13.50;;;9.40;;
15061;SDS011;7630;50.306;8.566;2022-10-12T12:05:51;15.77;;;11.10;;
15061;SDS011;7630;50.306;8.566;2022-10-12T12:09:52;9.23;;;8.43;;
15061;SDS011;7630;50.306;8.566;2022-10-12T12:18:28;11.20;;;8.90;;
15061;SDS011;7630;50.306;8.566;2022-10-12T12:26:49;10.93;;;8.07;;
15061;SDS011;7630;50.306;8.566;2022-10-12T12:31:01;12.40;;;8.77;;
15061;SDS011;7630;50.306;8.566;2022-10-12T12:35:00;9.57;;;7.33;;
15061;SDS011;7630;50.306;8.566;2022-10-12T12:39:02;13.60;;;8.53;;
15061;SDS011;7630;50.306;8.566;2022-10-12T12:43:32;11.63;;;7.60;;
15061;SDS011;7630;50.306;8.566;2022-10-12T12:47:37;12.03;;;9.67;;
15061;SDS011;7630;50.306;8.566;2022-10-12T12:51:41;8.93;;;8.03;;
15061;SDS011;7630;50.306;8.566;2022-10-12T12:55:57;10.80;;;7.27;;
15061;SDS011;7630;50.306;8.566;2022-10-12T13:00:04;11.10;;;8.47;;
15061;SDS011;7630;50.306;8.566;2022-10-12T13:22:01;10.00;;;8.83;;
15061;SDS011;7630;50.306;8.566;2022-10-12T13:25:32;13.53;;;8.40;;
15061;SDS011;7630;50.306;8.566;2022-10-12T13:29:39;13.67;;;9.97;;
15061;SDS011;7630;50.306;8.566;2022-10-12T13:33:53;12.73;;;9.23;;
15061;SDS011;7630;50.306;8.566;2022-10-12T13:37:59;12.83;;;8.53;;
15061;SDS011;7630;50.306;8.566;2022-10-12T13:42:19;10.50;;;9.43;;
15061;SDS011;7630;50.306;8.566;2022-10-12T13:50:50;13.07;;;9.03;;
15061;SDS011;7630;50.306;8.566;2022-10-12T13:55:10;17.50;;;11.57;;
15061;SDS011;7630;50.306;8.566;2022-10-12T13:59:10;12.37;;;9.43;;
15061;SDS011;7630;50.306;8.566;2022-10-12T14:03:24;10.90;;;9.80;;
15061;SDS011;7630;50.306;8.566;2022-10-12T14:11:35;17.20;;;10.40;;
15061;SDS011;7630;50.306;8.566;2022-10-12T14:15:37;15.43;;;10.27;;
15061;SDS011;7630;50.306;8.566;2022-10-12T14:23:48;13.83;;;12.40;;
15061;SDS011;7630;50.306;8.566;2022-10-12T14:28:02;13.63;;;12.00;;
15061;SDS011;7630;50.306;8.566;2022-10-12T14:32:07;12.13;;;10.90;;
15061;SDS011;7630;50.306;8.566;2022-10-12T14:36:22;20.53;;;15.23;;
15061;SDS011;7630;50.306;8.566;2022-10-12T14:44:40;20.93;;;15.00;;
15061;SDS011;7630;50.306;8.566;2022-10-12T14:48:42;19.67;;;14.90;;
15061;SDS011;7630;50.306;8.566;2022-10-12T14:52:44;26.03;;;18.07;;
15061;SDS011;7630;50.306;8.566;2022-10-12T14:56:47;15.33;;;13.03;;
15061;SDS011;7630;50.306;8.566;2022-10-12T15:00:48;21.23;;;16.00;;
15061;SDS011;7630;50.306;8.566;2022-10-12T15:04:50;16.30;;;12.50;;
15061;SDS011;7630;50.306;8.566;2022-10-12T15:08:51;16.93;;;11.77;;
15061;SDS011;7630;50.306;8.566;2022-10-12T15:17:01;13.80;;;10.50;;
15061;SDS011;7630;50.306;8.566;2022-10-12T15:21:02;14.43;;;11.10;;
15061;SDS011;7630;50.306;8.566;2022-10-12T15:25:04;19.20;;;12.10;;
15061;SDS011;7630;50.306;8.566;2022-10-12T15:29:25;13.97;;;12.10;;
15061;SDS011;7630;50.306;8.566;2022-10-12T15:33:26;14.83;;;12.47;;
15061;SDS011;7630;50.306;8.566;2022-10-12T15:37:29;17.47;;;12.93;;
15061;SDS011;7630;50.306;8.566;2022-10-12T15:41:31;15.50;;;13.90;;
15061;SDS011;7630;50.306;8.566;2022-10-12T15:45:33;12.80;;;11.43;;
15061;SDS011;7630;50.306;8.566;2022-10-12T15:49:35;18.90;;;16.87;;
15061;SDS011;7630;50.306;8.566;2022-10-12T15:53:37;29.87;;;26.73;;
15061;SDS011;7630;50.306;8.566;2022-10-12T15:57:38;29.10;;;24.50;;
15061;SDS011;7630;50.306;8.566;2022-10-12T16:01:39;24.90;;;22.40;;
15061;SDS011;7630;50.306;8.566;2022-10-12T16:05:41;33.37;;;27.40;;
15061;SDS011;7630;50.306;8.566;2022-10-12T16:09:42;30.10;;;24.33;;
15061;SDS011;7630;50.306;8.566;2022-10-12T16:13:44;22.03;;;17.97;;
15061;SDS011;7630;50.306;8.566;2022-10-12T16:17:49;20.63;;;16.50;;
15061;SDS011;7630;50.306;8.566;2022-10-12T16:21:50;17.67;;;15.60;;
15061;SDS011;7630;50.306;8.566;2022-10-12T16:25:51;20.47;;;18.00;;
15061;SDS011;7630;50.306;8.566;2022-10-12T16:29:53;18.33;;;16.53;;
15061;SDS011;7630;50.306;8.566;2022-10-12T16:33:55;22.97;;;14.87;;
15061;SDS011;7630;50.306;8.566;2022-10-12T16:37:57;23.73;;;15.17;;
15061;SDS011;7630;50.306;8.566;2022-10-12T16:41:58;20.23;;;16.20;;
15061;SDS011;7630;50.306;8.566;2022-10-12T16:45:59;17.13;;;15.33;;
15061;SDS011;7630;50.306;8.566;2022-10-12T16:50:00;20.63;;;18.63;;
15061;SDS011;7630;50.306;8.566;2022-10-12T16:54:01;22.70;;;20.33;;
15061;SDS011;7630;50.306;8.566;2022-10-12T16:58:02;24.43;;;21.90;;
15061;SDS011;7630;50.306;8.566;2022-10-12T17:02:03;28.30;;;22.73;;
15061;SDS011;7630;50.306;8.566;2022-10-12T17:06:05;21.97;;;19.70;;
15061;SDS011;7630;50.306;8.566;2022-10-12T17:10:06;25.50;;;22.60;;
15061;SDS011;7630;50.306;8.566;2022-10-12T17:14:10;26.07;;;23.00;;
15061;SDS011;7630;50.306;8.566;2022-10-12T17:18:13;44.90;;;39.90;;
15061;SDS011;7630;50.306;8.566;2022-10-12T17:22:14;34.40;;;31.07;;
15061;SDS011;7630;50.306;8.566;2022-10-12T17:26:15;38.90;;;34.70;;
15061;SDS011;7630;50.306;8.566;2022-10-12T17:30:16;29.90;;;27.30;;
15061;SDS011;7630;50.306;8.566;2022-10-12T17:38:28;26.85;;;24.52;;
15061;SDS011;7630;50.306;8.566;2022-10-12T17:42:29;33.60;;;27.60;;
15061;SDS011;7630;50.306;8.566;2022-10-12T17:46:31;29.70;;;26.37;;
15061;SDS011;7630;50.306;8.566;2022-10-12T17:50:32;30.00;;;27.10;;
15061;SDS011;7630;50.306;8.566;2022-10-12T17:54:34;42.27;;;37.67;;
15061;SDS011;7630;50.306;8.566;2022-10-12T17:58:36;38.58;;;34.80;;
15061;SDS011;7630;50.306;8.566;2022-10-12T18:02:38;33.63;;;30.00;;
15061;SDS011;7630;50.306;8.566;2022-10-12T18:06:39;39.08;;;35.20;;
15061;SDS011;7630;50.306;8.566;2022-10-12T18:10:41;38.20;;;34.47;;
15061;SDS011;7630;50.306;8.566;2022-10-12T18:14:42;36.43;;;33.07;;
15061;SDS011;7630;50.306;8.566;2022-10-12T18:18:43;36.40;;;32.60;;
15061;SDS011;7630;50.306;8.566;2022-10-12T18:22:44;37.67;;;33.97;;
15061;SDS011;7630;50.306;8.566;2022-10-12T18:26:45;69.93;;;61.27;;
15061;SDS011;7630;50.306;8.566;2022-10-12T18:30:47;65.03;;;53.50;;
15061;SDS011;7630;50.306;8.566;2022-10-12T18:34:50;36.97;;;32.37;;
15061;SDS011;7630;50.306;8.566;2022-10-12T18:38:53;109.77;;;64.07;;
15061;SDS011;7630;50.306;8.566;2022-10-12T18:42:54;49.07;;;37.90;;
15061;SDS011;7630;50.306;8.566;2022-10-12T18:46:55;48.73;;;40.13;;
15061;SDS011;7630;50.306;8.566;2022-10-12T18:51:01;40.83;;;35.87;;
15061;SDS011;7630;50.306;8.566;2022-10-12T18:55:13;42.00;;;33.90;;
15061;SDS011;7630;50.306;8.566;2022-10-12T18:59:14;45.73;;;40.73;;
15061;SDS011;7630;50.306;8.566;2022-10-12T19:03:17;41.70;;;37.43;;
15061;SDS011;7630;50.306;8.566;2022-10-12T19:07:18;37.73;;;33.87;;
15061;SDS011;7630;50.306;8.566;2022-10-12T19:11:19;36.53;;;32.97;;
15061;SDS011;7630;50.306;8.566;2022-10-12T19:15:22;48.77;;;40.37;;
15061;SDS011;7630;50.306;8.566;2022-10-12T19:19:24;49.53;;;40.83;;
15061;SDS011;7630;50.306;8.566;2022-10-12T19:23:25;34.60;;;30.83;;
15061;SDS011;7630;50.306;8.566;2022-10-12T19:27:27;36.73;;;29.20;;
15061;SDS011;7630;50.306;8.566;2022-10-12T19:31:33;31.40;;;27.83;;
15061;SDS011;7630;50.306;8.566;2022-10-12T19:35:35;41.03;;;35.90;;
15061;SDS011;7630;50.306;8.566;2022-10-12T19:39:37;44.50;;;37.50;;
15061;SDS011;7630;50.306;8.566;2022-10-12T19:43:41;42.60;;;38.63;;
15061;SDS011;7630;50.306;8.566;2022-10-12T19:47:46;39.90;;;35.90;;
15061;SDS011;7630;50.306;8.566;2022-10-12T19:51:47;41.73;;;37.27;;
15061;SDS011;7630;50.306;8.566;2022-10-12T19:55:48;40.40;;;36.07;;
15061;SDS011;7630;50.306;8.566;2022-10-12T19:59:50;46.43;;;38.27;;
15061;SDS011;7630;50.306;8.566;2022-10-12T20:03:52;46.90;;;41.90;;
15061;SDS011;7630;50.306;8.566;2022-10-12T20:07:53;52.50;;;43.70;;
15061;SDS011;7630;50.306;8.566;2022-10-12T20:11:54;40.23;;;36.13;;
15061;SDS011;7630;50.306;8.566;2022-10-12T20:15:55;38.53;;;34.53;;
15061;SDS011;7630;50.306;8.566;2022-10-12T20:19:57;37.47;;;33.47;;
15061;SDS011;7630;50.306;8.566;2022-10-12T20:23:59;41.95;;;38.15;;
15061;SDS011;7630;50.306;8.566;2022-10-12T20:28:00;39.37;;;35.17;;
15061;SDS011;7630;50.306;8.566;2022-10-12T20:32:02;39.03;;;34.87;;
15061;SDS011;7630;50.306;8.566;2022-10-12T20:36:10;35.77;;;32.07;;
15061;SDS011;7630;50.306;8.566;2022-10-12T20:40:13;36.83;;;33.17;;
15061;SDS011;7630;50.306;8.566;2022-10-12T20:44:14;42.10;;;35.90;;
15061;SDS011;7630;50.306;8.566;2022-10-12T20:48:15;38.23;;;34.60;;
15061;SDS011;7630;50.306;8.566;2022-10-12T20:52:16;40.57;;;35.60;;
15061;SDS011;7630;50.306;8.566;2022-10-12T20:56:18;39.73;;;35.53;;
15061;SDS011;7630;50.306;8.566;2022-10-12T21:00:19;39.53;;;34.07;;
15061;SDS011;7630;50.306;8.566;2022-10-12T21:04:21;37.47;;;33.80;;
15061;SDS011;7630;50.306;8.566;2022-10-12T21:08:22;43.60;;;37.03;;
15061;SDS011;7630;50.306;8.566;2022-10-12T21:12:23;52.43;;;46.77;;
15061;SDS011;7630;50.306;8.566;2022-10-12T21:16:24;45.97;;;41.07;;
15061;SDS011;7630;50.306;8.566;2022-10-12T21:20:26;45.80;;;40.27;;
15061;SDS011;7630;50.306;8.566;2022-10-12T21:24:27;46.00;;;41.20;;
15061;SDS011;7630;50.306;8.566;2022-10-12T21:28:28;45.77;;;40.87;;
15061;SDS011;7630;50.306;8.566;2022-10-12T21:32:29;47.53;;;41.43;;
15061;SDS011;7630;50.306;8.566;2022-10-12T21:36:31;49.47;;;42.23;;
15061;SDS011;7630;50.306;8.566;2022-10-12T21:40:35;69.80;;;51.67;;
15061;SDS011;7630;50.306;8.566;2022-10-12T21:44:36;56.60;;;46.97;;
15061;SDS011;7630;50.306;8.566;2022-10-12T21:48:37;57.27;;;40.90;;
15061;SDS011;7630;50.306;8.566;2022-10-12T21:52:38;47.17;;;42.23;;
15061;SDS011;7630;50.306;8.566;2022-10-12T21:56:39;46.13;;;41.17;;
15061;SDS011;7630;50.306;8.566;2022-10-12T22:00:40;42.07;;;37.60;;
15061;SDS011;7630;50.306;8.566;2022-10-12T22:04:41;42.03;;;37.67;;
15061;SDS011;7630;50.306;8.566;2022-10-12T22:08:42;44.20;;;39.67;;
15061;SDS011;7630;50.306;8.566;2022-10-12T22:12:44;42.50;;;38.00;;
15061;SDS011;7630;50.306;8.566;2022-10-12T22:16:45;44.00;;;38.37;;
15061;SDS011;7630;50.306;8.566;2022-10-12T22:20:46;48.93;;;41.07;;
15061;SDS011;7630;50.306;8.566;2022-10-12T22:24:47;49.37;;;41.43;;
15061;SDS011;7630;50.306;8.566;2022-10-12T22:28:48;53.87;;;40.60;;
15061;SDS011;7630;50.306;8.566;2022-10-12T22:32:49;44.23;;;36.63;;
15061;SDS011;7630;50.306;8.566;2022-10-12T22:36:50;42.10;;;36.67;;
15061;SDS011;7630;50.306;8.566;2022-10-12T22:40:54;40.83;;;36.20;;
15061;SDS011;7630;50.306;8.566;2022-10-12T22:45:00;44.73;;;34.90;;
15061;SDS011;7630;50.306;8.566;2022-10-12T22:49:01;40.13;;;35.67;;
15061;SDS011;7630;50.306;8.566;2022-10-12T22:53:02;38.77;;;34.73;;
15061;SDS011;7630;50.306;8.566;2022-10-12T22:57:04;39.03;;;34.90;;
15061;SDS011;7630;50.306;8.566;2022-10-12T23:01:15;37.90;;;34.03;;
15061;SDS011;7630;50.306;8.566;2022-10-12T23:05:14;37.67;;;33.70;;
15061;SDS011;7630;50.306;8.566;2022-10-12T23:09:16;39.17;;;35.40;;
15061;SDS011;7630;50.306;8.566;2022-10-12T23:13:17;40.20;;;36.03;;
15061;SDS011;7630;50.306;8.566;2022-10-12T23:17:17;41.93;;;34.63;;
15061;SDS011;7630;50.306;8.566;2022-10-12T23:21:18;37.90;;;32.87;;
15061;SDS011;7630;50.306;8.566;2022-10-12T23:25:19;38.43;;;32.60;;
15061;SDS011;7630;50.306;8.566;2022-10-12T23:29:20;38.27;;;34.23;;
15061;SDS011;7630;50.306;8.566;2022-10-12T23:33:21;36.47;;;31.93;;
15061;SDS011;7630;50.306;8.566;2022-10-12T23:37:22;36.57;;;30.93;;
15061;SDS011;7630;50.306;8.566;2022-10-12T23:41:23;33.37;;;30.00;;
15061;SDS011;7630;50.306;8.566;2022-10-12T23:45:24;31.27;;;28.00;;
15061;SDS011;7630;50.306;8.566;2022-10-12T23:49:25;36.30;;;31.50;;
15061;SDS011;7630;50.306;8.566;2022-10-12T23:53:26;33.70;;;30.13;;
15061;SDS011;7630;50.306;8.566;2022-10-12T23:57:28;36.73;;;32.93;;
